sensor_id;sensor_type;location;lat;lon;timestamp;P1;durP1;ratioP1;P2;durP2;ratioP2
56181;SDS011;51963;46.052;14.544;2024-03-25T00:01:35;9.25;;;4.70;;
56181;SDS011;51963;46.052;14.544;2024-03-25T00:04:01;9.48;;;5.20;;
56181;SDS011;51963;46.052;14.544;2024-03-25T00:06:26;11.20;;;5.45;;
56181;SDS011;51963;46.052;14.544;2024-03-25T00:08:52;13.63;;;5.28;;
56181;SDS011;51963;46.052;14.544;2024-03-25T00:11:18;11.70;;;5.38;;
56181;SDS011;51963;46.052;14.544;2024-03-25T00:13:43;9.35;;;5.00;;
56181;SDS011;51963;46.052;14.544;2024-03-25T00:16:09;9.07;;;5.07;;
56181;SDS011;51963;46.052;14.544;2024-03-25T00:18:38;9.48;;;4.82;;
56181;SDS011;51963;46.052;14.544;2024-03-25T00:21:04;9.75;;;5.10;;
56181;SDS011;51963;46.052;14.544;2024-03-25T00:23:29;10.27;;;5.05;;
56181;SDS011;51963;46.052;14.544;2024-03-25T00:25:55;9.68;;;4.65;;
56181;SDS011;51963;46.052;14.544;2024-03-25T00:28:21;9.10;;;5.10;;
56181;SDS011;51963;46.052;14.544;2024-03-25T00:30:46;8.75;;;4.50;;
56181;SDS011;51963;46.052;14.544;2024-03-25T00:33:12;9.77;;;5.50;;
56181;SDS011;51963;46.052;14.544;2024-03-25T00:35:39;11.25;;;5.90;;
56181;SDS011;51963;46.052;14.544;2024-03-25T00:38:05;15.17;;;5.70;;
56181;SDS011;51963;46.052;14.544;2024-03-25T00:40:33;14.70;;;5.37;;
56181;SDS011;51963;46.052;14.544;2024-03-25T00:42:59;10.35;;;5.68;;
56181;SDS011;51963;46.052;14.544;2024-03-25T00:45:25;20.75;;;10.95;;
56181;SDS011;51963;46.052;14.544;2024-03-25T00:47:58;10.38;;;4.78;;
56181;SDS011;51963;46.052;14.544;2024-03-25T00:50:25;10.95;;;4.95;;
56181;SDS011;51963;46.052;14.544;2024-03-25T00:52:51;9.82;;;4.85;;
56181;SDS011;51963;46.052;14.544;2024-03-25T00:55:17;9.15;;;4.93;;
56181;SDS011;51963;46.052;14.544;2024-03-25T00:57:42;9.43;;;4.80;;
56181;SDS011;51963;46.052;14.544;2024-03-25T01:00:09;8.07;;;4.05;;
56181;SDS011;51963;46.052;14.544;2024-03-25T01:02:35;7.72;;;4.10;;
56181;SDS011;51963;46.052;14.544;2024-03-25T01:05:02;8.75;;;4.13;;
56181;SDS011;51963;46.052;14.544;2024-03-25T01:07:30;10.18;;;4.93;;
56181;SDS011;51963;46.052;14.544;2024-03-25T01:09:56;9.55;;;4.22;;
56181;SDS011;51963;46.052;14.544;2024-03-25T01:12:23;11.13;;;5.03;;
56181;SDS011;51963;46.052;14.544;2024-03-25T01:14:49;10.48;;;4.68;;
56181;SDS011;51963;46.052;14.544;2024-03-25T01:17:15;8.82;;;4.50;;
56181;SDS011;51963;46.052;14.544;2024-03-25T01:19:41;9.02;;;4.38;;
56181;SDS011;51963;46.052;14.544;2024-03-25T01:22:06;8.55;;;4.05;;
56181;SDS011;51963;46.052;14.544;2024-03-25T01:24:32;10.73;;;4.13;;
56181;SDS011;51963;46.052;14.544;2024-03-25T01:27:00;9.13;;;4.28;;
56181;SDS011;51963;46.052;14.544;2024-03-25T01:29:26;8.00;;;4.03;;
56181;SDS011;51963;46.052;14.544;2024-03-25T01:31:52;9.90;;;4.50;;
56181;SDS011;51963;46.052;14.544;2024-03-25T01:34:18;9.50;;;4.40;;
56181;SDS011;51963;46.052;14.544;2024-03-25T01:36:44;10.63;;;4.20;;
56181;SDS011;51963;46.052;14.544;2024-03-25T01:39:09;9.90;;;4.38;;
56181;SDS011;51963;46.052;14.544;2024-03-25T01:41:35;8.68;;;4.55;;
56181;SDS011;51963;46.052;14.544;2024-03-25T01:44:01;9.13;;;3.95;;
56181;SDS011;51963;46.052;14.544;2024-03-25T01:46:27;9.40;;;4.45;;
56181;SDS011;51963;46.052;14.544;2024-03-25T01:48:53;6.88;;;4.13;;
56181;SDS011;51963;46.052;14.544;2024-03-25T01:51:20;13.50;;;4.70;;
56181;SDS011;51963;46.052;14.544;2024-03-25T01:53:49;9.10;;;4.85;;
56181;SDS011;51963;46.052;14.544;2024-03-25T01:56:15;8.88;;;4.50;;
56181;SDS011;51963;46.052;14.544;2024-03-25T01:58:42;7.03;;;4.13;;
56181;SDS011;51963;46.052;14.544;2024-03-25T02:01:07;7.32;;;3.92;;
56181;SDS011;51963;46.052;14.544;2024-03-25T02:03:36;8.68;;;4.00;;
56181;SDS011;51963;46.052;14.544;2024-03-25T02:06:04;8.00;;;3.80;;
56181;SDS011;51963;46.052;14.544;2024-03-25T02:08:34;8.57;;;4.88;;
56181;SDS011;51963;46.052;14.544;2024-03-25T02:11:01;8.43;;;4.28;;
56181;SDS011;51963;46.052;14.544;2024-03-25T02:13:27;9.38;;;4.38;;
56181;SDS011;51963;46.052;14.544;2024-03-25T02:15:53;8.88;;;3.88;;
56181;SDS011;51963;46.052;14.544;2024-03-25T02:18:20;10.75;;;4.95;;
56181;SDS011;51963;46.052;14.544;2024-03-25T02:20:46;8.43;;;4.38;;
56181;SDS011;51963;46.052;14.544;2024-03-25T02:23:12;10.00;;;4.90;;
56181;SDS011;51963;46.052;14.544;2024-03-25T02:25:41;9.75;;;4.38;;
56181;SDS011;51963;46.052;14.544;2024-03-25T02:28:09;7.28;;;4.40;;
56181;SDS011;51963;46.052;14.544;2024-03-25T02:30:34;9.65;;;4.65;;
56181;SDS011;51963;46.052;14.544;2024-03-25T02:33:02;8.13;;;4.22;;
56181;SDS011;51963;46.052;14.544;2024-03-25T02:35:28;8.05;;;4.30;;
56181;SDS011;51963;46.052;14.544;2024-03-25T02:37:54;11.15;;;4.97;;
56181;SDS011;51963;46.052;14.544;2024-03-25T02:40:20;10.48;;;4.60;;
56181;SDS011;51963;46.052;14.544;2024-03-25T02:42:47;8.82;;;4.70;;
56181;SDS011;51963;46.052;14.544;2024-03-25T02:45:13;9.30;;;4.72;;
56181;SDS011;51963;46.052;14.544;2024-03-25T02:47:39;9.10;;;4.80;;
56181;SDS011;51963;46.052;14.544;2024-03-25T02:50:04;10.77;;;5.63;;
56181;SDS011;51963;46.052;14.544;2024-03-25T02:52:30;12.00;;;5.20;;
56181;SDS011;51963;46.052;14.544;2024-03-25T02:54:56;7.28;;;4.25;;
56181;SDS011;51963;46.052;14.544;2024-03-25T02:57:22;9.02;;;4.53;;
56181;SDS011;51963;46.052;14.544;2024-03-25T02:59:47;8.43;;;4.47;;
56181;SDS011;51963;46.052;14.544;2024-03-25T03:02:15;8.98;;;4.72;;
56181;SDS011;51963;46.052;14.544;2024-03-25T03:04:41;8.55;;;4.28;;
56181;SDS011;51963;46.052;14.544;2024-03-25T03:07:06;8.32;;;4.80;;
56181;SDS011;51963;46.052;14.544;2024-03-25T03:09:32;10.05;;;5.03;;
56181;SDS011;51963;46.052;14.544;2024-03-25T03:11:58;8.68;;;4.75;;
56181;SDS011;51963;46.052;14.544;2024-03-25T03:14:23;9.55;;;5.03;;
56181;SDS011;51963;46.052;14.544;2024-03-25T03:16:49;8.02;;;4.50;;
56181;SDS011;51963;46.052;14.544;2024-03-25T03:19:15;10.18;;;4.70;;
56181;SDS011;51963;46.052;14.544;2024-03-25T03:21:43;11.85;;;5.60;;
56181;SDS011;51963;46.052;14.544;2024-03-25T03:24:08;9.98;;;5.40;;
56181;SDS011;51963;46.052;14.544;2024-03-25T03:26:34;9.57;;;5.00;;
56181;SDS011;51963;46.052;14.544;2024-03-25T03:28:59;11.65;;;5.40;;
56181;SDS011;51963;46.052;14.544;2024-03-25T03:31:25;9.50;;;4.95;;
56181;SDS011;51963;46.052;14.544;2024-03-25T03:33:54;9.63;;;5.10;;
56181;SDS011;51963;46.052;14.544;2024-03-25T03:36:21;10.30;;;5.78;;
56181;SDS011;51963;46.052;14.544;2024-03-25T03:38:49;8.32;;;4.85;;
56181;SDS011;51963;46.052;14.544;2024-03-25T03:41:16;9.25;;;4.70;;
56181;SDS011;51963;46.052;14.544;2024-03-25T03:43:41;11.48;;;5.32;;
56181;SDS011;51963;46.052;14.544;2024-03-25T03:46:07;9.32;;;5.10;;
56181;SDS011;51963;46.052;14.544;2024-03-25T03:48:32;11.70;;;5.45;;
56181;SDS011;51963;46.052;14.544;2024-03-25T03:50:58;9.90;;;5.50;;
56181;SDS011;51963;46.052;14.544;2024-03-25T03:53:23;11.55;;;5.93;;
56181;SDS011;51963;46.052;14.544;2024-03-25T03:55:53;11.82;;;5.60;;
56181;SDS011;51963;46.052;14.544;2024-03-25T03:58:19;13.18;;;5.50;;
56181;SDS011;51963;46.052;14.544;2024-03-25T04:00:45;14.23;;;5.57;;
56181;SDS011;51963;46.052;14.544;2024-03-25T04:03:11;9.90;;;5.00;;
56181;SDS011;51963;46.052;14.544;2024-03-25T04:05:36;12.10;;;5.18;;
56181;SDS011;51963;46.052;14.544;2024-03-25T04:08:02;9.80;;;5.35;;
56181;SDS011;51963;46.052;14.544;2024-03-25T04:10:27;11.35;;;5.43;;
56181;SDS011;51963;46.052;14.544;2024-03-25T04:12:53;14.77;;;6.47;;
56181;SDS011;51963;46.052;14.544;2024-03-25T04:15:19;11.07;;;5.72;;
56181;SDS011;51963;46.052;14.544;2024-03-25T04:17:44;12.00;;;5.85;;
56181;SDS011;51963;46.052;14.544;2024-03-25T04:20:13;11.35;;;5.50;;
56181;SDS011;51963;46.052;14.544;2024-03-25T04:22:43;11.43;;;5.90;;
56181;SDS011;51963;46.052;14.544;2024-03-25T04:25:09;12.57;;;6.07;;
56181;SDS011;51963;46.052;14.544;2024-03-25T04:27:42;12.70;;;5.88;;
56181;SDS011;51963;46.052;14.544;2024-03-25T04:30:09;9.93;;;5.70;;
56181;SDS011;51963;46.052;14.544;2024-03-25T04:32:35;10.30;;;5.72;;
56181;SDS011;51963;46.052;14.544;2024-03-25T04:35:01;15.95;;;6.60;;
56181;SDS011;51963;46.052;14.544;2024-03-25T04:37:28;11.80;;;5.97;;
56181;SDS011;51963;46.052;14.544;2024-03-25T04:39:55;12.60;;;5.97;;
56181;SDS011;51963;46.052;14.544;2024-03-25T04:42:23;12.73;;;5.63;;
56181;SDS011;51963;46.052;14.544;2024-03-25T04:44:49;12.45;;;6.65;;
56181;SDS011;51963;46.052;14.544;2024-03-25T04:47:16;12.77;;;6.70;;
56181;SDS011;51963;46.052;14.544;2024-03-25T04:49:41;11.48;;;6.55;;
56181;SDS011;51963;46.052;14.544;2024-03-25T04:52:08;13.05;;;6.00;;
56181;SDS011;51963;46.052;14.544;2024-03-25T04:54:33;10.77;;;5.72;;
56181;SDS011;51963;46.052;14.544;2024-03-25T04:56:59;11.68;;;6.22;;
56181;SDS011;51963;46.052;14.544;2024-03-25T04:59:27;13.50;;;7.00;;
56181;SDS011;51963;46.052;14.544;2024-03-25T05:01:54;11.05;;;6.13;;
56181;SDS011;51963;46.052;14.544;2024-03-25T05:04:19;14.90;;;7.07;;
56181;SDS011;51963;46.052;14.544;2024-03-25T05:06:45;13.45;;;6.68;;
56181;SDS011;51963;46.052;14.544;2024-03-25T05:09:11;13.77;;;6.38;;
56181;SDS011;51963;46.052;14.544;2024-03-25T05:11:36;11.82;;;6.22;;
56181;SDS011;51963;46.052;14.544;2024-03-25T05:14:02;14.43;;;6.50;;
56181;SDS011;51963;46.052;14.544;2024-03-25T05:16:28;12.93;;;6.28;;
56181;SDS011;51963;46.052;14.544;2024-03-25T05:18:55;14.02;;;6.65;;
56181;SDS011;51963;46.052;14.544;2024-03-25T05:21:21;11.80;;;6.18;;
56181;SDS011;51963;46.052;14.544;2024-03-25T05:23:46;12.25;;;5.63;;
56181;SDS011;51963;46.052;14.544;2024-03-25T05:26:12;11.63;;;5.75;;
56181;SDS011;51963;46.052;14.544;2024-03-25T05:28:39;9.50;;;5.40;;
56181;SDS011;51963;46.052;14.544;2024-03-25T05:31:08;14.00;;;5.97;;
56181;SDS011;51963;46.052;14.544;2024-03-25T05:33:36;11.43;;;5.88;;
56181;SDS011;51963;46.052;14.544;2024-03-25T05:36:03;15.20;;;6.65;;
56181;SDS011;51963;46.052;14.544;2024-03-25T05:38:29;10.35;;;5.40;;
56181;SDS011;51963;46.052;14.544;2024-03-25T05:40:54;10.82;;;5.63;;
56181;SDS011;51963;46.052;14.544;2024-03-25T05:43:20;12.45;;;5.88;;
56181;SDS011;51963;46.052;14.544;2024-03-25T05:45:50;12.95;;;6.22;;
56181;SDS011;51963;46.052;14.544;2024-03-25T05:48:16;12.88;;;6.45;;
56181;SDS011;51963;46.052;14.544;2024-03-25T05:50:43;11.00;;;5.57;;
56181;SDS011;51963;46.052;14.544;2024-03-25T05:53:08;12.25;;;6.30;;
56181;SDS011;51963;46.052;14.544;2024-03-25T05:55:34;13.75;;;5.75;;
56181;SDS011;51963;46.052;14.544;2024-03-25T05:58:00;15.25;;;7.00;;
56181;SDS011;51963;46.052;14.544;2024-03-25T06:00:25;16.58;;;7.20;;
56181;SDS011;51963;46.052;14.544;2024-03-25T06:02:53;14.48;;;7.20;;
56181;SDS011;51963;46.052;14.544;2024-03-25T06:05:21;17.25;;;7.50;;
56181;SDS011;51963;46.052;14.544;2024-03-25T06:07:47;14.70;;;8.05;;
56181;SDS011;51963;46.052;14.544;2024-03-25T06:10:12;21.38;;;8.60;;
56181;SDS011;51963;46.052;14.544;2024-03-25T06:12:38;20.70;;;8.55;;
56181;SDS011;51963;46.052;14.544;2024-03-25T06:15:04;17.90;;;7.80;;
56181;SDS011;51963;46.052;14.544;2024-03-25T06:17:30;17.67;;;7.95;;
56181;SDS011;51963;46.052;14.544;2024-03-25T06:19:55;18.20;;;9.18;;
56181;SDS011;51963;46.052;14.544;2024-03-25T06:22:21;20.05;;;9.23;;
56181;SDS011;51963;46.052;14.544;2024-03-25T06:24:47;18.40;;;9.52;;
56181;SDS011;51963;46.052;14.544;2024-03-25T06:27:15;20.65;;;7.95;;
56181;SDS011;51963;46.052;14.544;2024-03-25T06:29:41;21.10;;;9.27;;
56181;SDS011;51963;46.052;14.544;2024-03-25T06:32:09;19.95;;;9.32;;
56181;SDS011;51963;46.052;14.544;2024-03-25T06:34:56;20.73;;;9.43;;
56181;SDS011;51963;46.052;14.544;2024-03-25T06:37:25;18.80;;;8.80;;
56181;SDS011;51963;46.052;14.544;2024-03-25T06:39:51;19.02;;;8.82;;
56181;SDS011;51963;46.052;14.544;2024-03-25T06:42:18;17.92;;;8.85;;
56181;SDS011;51963;46.052;14.544;2024-03-25T06:44:48;18.80;;;9.52;;
56181;SDS011;51963;46.052;14.544;2024-03-25T06:47:16;18.73;;;9.20;;
56181;SDS011;51963;46.052;14.544;2024-03-25T06:49:41;17.02;;;9.38;;
56181;SDS011;51963;46.052;14.544;2024-03-25T06:52:07;18.27;;;8.57;;
56181;SDS011;51963;46.052;14.544;2024-03-25T06:54:32;17.83;;;9.35;;
56181;SDS011;51963;46.052;14.544;2024-03-25T06:57:03;22.35;;;9.00;;
56181;SDS011;51963;46.052;14.544;2024-03-25T06:59:29;17.50;;;8.68;;
56181;SDS011;51963;46.052;14.544;2024-03-25T07:02:01;18.23;;;8.52;;
56181;SDS011;51963;46.052;14.544;2024-03-25T07:04:27;15.82;;;8.57;;
56181;SDS011;51963;46.052;14.544;2024-03-25T07:06:52;17.85;;;8.82;;
56181;SDS011;51963;46.052;14.544;2024-03-25T07:09:18;19.23;;;8.63;;
56181;SDS011;51963;46.052;14.544;2024-03-25T07:11:44;17.38;;;8.63;;
56181;SDS011;51963;46.052;14.544;2024-03-25T07:14:12;21.70;;;9.43;;
56181;SDS011;51963;46.052;14.544;2024-03-25T07:16:41;15.93;;;9.43;;
56181;SDS011;51963;46.052;14.544;2024-03-25T07:19:07;18.75;;;9.00;;
56181;SDS011;51963;46.052;14.544;2024-03-25T07:21:33;19.73;;;8.70;;
56181;SDS011;51963;46.052;14.544;2024-03-25T07:23:58;13.73;;;7.85;;
56181;SDS011;51963;46.052;14.544;2024-03-25T07:26:26;18.45;;;8.23;;
56181;SDS011;51963;46.052;14.544;2024-03-25T07:28:52;17.35;;;8.48;;
56181;SDS011;51963;46.052;14.544;2024-03-25T07:31:17;17.60;;;9.18;;
56181;SDS011;51963;46.052;14.544;2024-03-25T07:33:43;17.33;;;8.68;;
56181;SDS011;51963;46.052;14.544;2024-03-25T07:36:11;18.95;;;8.75;;
56181;SDS011;51963;46.052;14.544;2024-03-25T07:41:04;17.45;;;9.00;;
56181;SDS011;51963;46.052;14.544;2024-03-25T07:43:31;19.38;;;9.27;;
56181;SDS011;51963;46.052;14.544;2024-03-25T07:45:57;20.50;;;10.13;;
56181;SDS011;51963;46.052;14.544;2024-03-25T07:48:23;19.33;;;9.40;;
56181;SDS011;51963;46.052;14.544;2024-03-25T07:50:48;17.00;;;8.27;;
56181;SDS011;51963;46.052;14.544;2024-03-25T07:53:14;16.30;;;8.65;;
56181;SDS011;51963;46.052;14.544;2024-03-25T07:55:39;16.55;;;8.38;;
56181;SDS011;51963;46.052;14.544;2024-03-25T07:58:05;17.02;;;8.50;;
56181;SDS011;51963;46.052;14.544;2024-03-25T08:00:30;18.27;;;8.77;;
56181;SDS011;51963;46.052;14.544;2024-03-25T08:02:56;17.63;;;8.77;;
56181;SDS011;51963;46.052;14.544;2024-03-25T08:05:22;16.58;;;8.23;;
56181;SDS011;51963;46.052;14.544;2024-03-25T08:07:47;17.02;;;8.45;;
56181;SDS011;51963;46.052;14.544;2024-03-25T08:10:16;18.65;;;7.82;;
56181;SDS011;51963;46.052;14.544;2024-03-25T08:12:42;14.48;;;8.32;;
56181;SDS011;51963;46.052;14.544;2024-03-25T08:15:08;14.68;;;7.93;;
56181;SDS011;51963;46.052;14.544;2024-03-25T08:17:33;14.52;;;8.27;;
56181;SDS011;51963;46.052;14.544;2024-03-25T08:19:59;17.77;;;8.10;;
56181;SDS011;51963;46.052;14.544;2024-03-25T08:22:27;14.05;;;6.82;;
56181;SDS011;51963;46.052;14.544;2024-03-25T08:24:52;13.50;;;7.50;;
56181;SDS011;51963;46.052;14.544;2024-03-25T08:27:18;11.85;;;5.93;;
56181;SDS011;51963;46.052;14.544;2024-03-25T08:29:43;12.27;;;6.90;;
56181;SDS011;51963;46.052;14.544;2024-03-25T08:32:09;12.73;;;6.68;;
56181;SDS011;51963;46.052;14.544;2024-03-25T08:34:35;10.13;;;5.80;;
56181;SDS011;51963;46.052;14.544;2024-03-25T08:37:00;8.77;;;4.95;;
56181;SDS011;51963;46.052;14.544;2024-03-25T08:39:28;8.90;;;4.32;;
56181;SDS011;51963;46.052;14.544;2024-03-25T08:41:54;7.45;;;3.58;;
56181;SDS011;51963;46.052;14.544;2024-03-25T08:44:19;6.05;;;3.55;;
56181;SDS011;51963;46.052;14.544;2024-03-25T08:46:45;6.40;;;3.88;;
56181;SDS011;51963;46.052;14.544;2024-03-25T08:49:11;7.95;;;4.75;;
56181;SDS011;51963;46.052;14.544;2024-03-25T08:51:36;8.30;;;4.80;;
56181;SDS011;51963;46.052;14.544;2024-03-25T08:54:02;7.35;;;4.05;;
56181;SDS011;51963;46.052;14.544;2024-03-25T08:58:56;6.88;;;3.90;;
56181;SDS011;51963;46.052;14.544;2024-03-25T09:01:22;5.55;;;3.33;;
56181;SDS011;51963;46.052;14.544;2024-03-25T09:03:49;5.45;;;2.97;;
56181;SDS011;51963;46.052;14.544;2024-03-25T09:06:18;4.93;;;2.90;;
56181;SDS011;51963;46.052;14.544;2024-03-25T09:08:43;7.22;;;3.40;;
56181;SDS011;51963;46.052;14.544;2024-03-25T09:11:28;6.72;;;4.43;;
56181;SDS011;51963;46.052;14.544;2024-03-25T09:13:54;7.72;;;4.88;;
56181;SDS011;51963;46.052;14.544;2024-03-25T09:16:19;8.40;;;4.30;;
56181;SDS011;51963;46.052;14.544;2024-03-25T09:18:45;6.68;;;4.22;;
56181;SDS011;51963;46.052;14.544;2024-03-25T09:21:13;9.68;;;5.15;;
56181;SDS011;51963;46.052;14.544;2024-03-25T09:23:41;6.03;;;4.37;;
56181;SDS011;51963;46.052;14.544;2024-03-25T09:26:07;8.40;;;4.20;;
56181;SDS011;51963;46.052;14.544;2024-03-25T09:28:32;7.97;;;4.70;;
56181;SDS011;51963;46.052;14.544;2024-03-25T09:33:26;6.47;;;3.95;;
56181;SDS011;51963;46.052;14.544;2024-03-25T09:35:52;5.28;;;3.72;;
56181;SDS011;51963;46.052;14.544;2024-03-25T09:38:17;5.93;;;3.90;;
56181;SDS011;51963;46.052;14.544;2024-03-25T09:40:43;7.32;;;3.53;;
56181;SDS011;51963;46.052;14.544;2024-03-25T09:43:12;8.57;;;3.67;;
56181;SDS011;51963;46.052;14.544;2024-03-25T09:45:48;6.03;;;3.33;;
56181;SDS011;51963;46.052;14.544;2024-03-25T09:48:23;6.18;;;2.67;;
56181;SDS011;51963;46.052;14.544;2024-03-25T09:50:49;4.45;;;3.03;;
56181;SDS011;51963;46.052;14.544;2024-03-25T09:53:17;5.35;;;2.90;;
56181;SDS011;51963;46.052;14.544;2024-03-25T09:55:46;4.55;;;2.35;;
56181;SDS011;51963;46.052;14.544;2024-03-25T09:58:13;5.88;;;2.80;;
56181;SDS011;51963;46.052;14.544;2024-03-25T10:00:43;6.28;;;2.70;;
56181;SDS011;51963;46.052;14.544;2024-03-25T10:03:09;3.83;;;2.33;;
56181;SDS011;51963;46.052;14.544;2024-03-25T10:05:37;2.80;;;1.92;;
56181;SDS011;51963;46.052;14.544;2024-03-25T10:08:07;2.83;;;2.05;;
56181;SDS011;51963;46.052;14.544;2024-03-25T10:10:36;5.15;;;2.35;;
56181;SDS011;51963;46.052;14.544;2024-03-25T10:13:13;4.18;;;2.60;;
56181;SDS011;51963;46.052;14.544;2024-03-25T10:15:41;3.72;;;2.60;;
56181;SDS011;51963;46.052;14.544;2024-03-25T10:18:12;4.07;;;2.30;;
56181;SDS011;51963;46.052;14.544;2024-03-25T10:20:38;3.33;;;1.88;;
56181;SDS011;51963;46.052;14.544;2024-03-25T10:23:12;4.25;;;1.95;;
56181;SDS011;51963;46.052;14.544;2024-03-25T10:25:38;4.28;;;1.95;;
56181;SDS011;51963;46.052;14.544;2024-03-25T10:28:06;4.65;;;1.80;;
56181;SDS011;51963;46.052;14.544;2024-03-25T10:30:32;2.80;;;1.63;;
56181;SDS011;51963;46.052;14.544;2024-03-25T10:33:04;6.75;;;1.98;;
56181;SDS011;51963;46.052;14.544;2024-03-25T10:35:38;3.50;;;2.20;;
56181;SDS011;51963;46.052;14.544;2024-03-25T10:38:10;3.67;;;1.60;;
56181;SDS011;51963;46.052;14.544;2024-03-25T10:43:30;5.55;;;1.45;;
56181;SDS011;51963;46.052;14.544;2024-03-25T10:46:03;2.10;;;1.52;;
56181;SDS011;51963;46.052;14.544;2024-03-25T10:48:37;1.25;;;1.10;;
56181;SDS011;51963;46.052;14.544;2024-03-25T10:52:02;2.38;;;1.20;;
56181;SDS011;51963;46.052;14.544;2024-03-25T10:54:30;0.90;;;0.52;;
56181;SDS011;51963;46.052;14.544;2024-03-25T10:57:07;1.40;;;0.70;;
56181;SDS011;51963;46.052;14.544;2024-03-25T10:59:48;0.45;;;0.40;;
56181;SDS011;51963;46.052;14.544;2024-03-25T11:02:17;1.00;;;0.52;;
56181;SDS011;51963;46.052;14.544;2024-03-25T11:04:46;1.10;;;0.40;;
56181;SDS011;51963;46.052;14.544;2024-03-25T11:07:15;0.38;;;0.30;;
56181;SDS011;51963;46.052;14.544;2024-03-25T11:09:41;4.32;;;0.30;;
56181;SDS011;51963;46.052;14.544;2024-03-25T11:12:10;4.20;;;0.30;;
56181;SDS011;51963;46.052;14.544;2024-03-25T11:14:40;0.77;;;0.30;;
56181;SDS011;51963;46.052;14.544;2024-03-25T11:17:15;1.98;;;0.35;;
56181;SDS011;51963;46.052;14.544;2024-03-25T11:19:41;2.85;;;0.40;;
56181;SDS011;51963;46.052;14.544;2024-03-25T11:22:08;1.23;;;0.20;;
56181;SDS011;51963;46.052;14.544;2024-03-25T11:27:06;0.47;;;0.30;;
56181;SDS011;51963;46.052;14.544;2024-03-25T11:29:34;0.40;;;0.30;;
56181;SDS011;51963;46.052;14.544;2024-03-25T11:32:03;0.20;;;0.20;;
56181;SDS011;51963;46.052;14.544;2024-03-25T11:34:30;0.47;;;0.20;;
56181;SDS011;51963;46.052;14.544;2024-03-25T11:36:56;0.50;;;0.40;;
56181;SDS011;51963;46.052;14.544;2024-03-25T11:39:23;1.65;;;0.52;;
56181;SDS011;51963;46.052;14.544;2024-03-25T11:41:56;1.58;;;0.55;;
56181;SDS011;51963;46.052;14.544;2024-03-25T11:44:22;1.85;;;0.32;;
56181;SDS011;51963;46.052;14.544;2024-03-25T11:46:51;0.88;;;0.50;;
56181;SDS011;51963;46.052;14.544;2024-03-25T11:49:20;0.63;;;0.50;;
56181;SDS011;51963;46.052;14.544;2024-03-25T11:51:50;4.88;;;0.40;;
56181;SDS011;51963;46.052;14.544;2024-03-25T11:54:17;0.60;;;0.50;;
56181;SDS011;51963;46.052;14.544;2024-03-25T11:56:44;0.68;;;0.50;;
56181;SDS011;51963;46.052;14.544;2024-03-25T11:59:12;2.13;;;0.55;;
56181;SDS011;51963;46.052;14.544;2024-03-25T12:01:40;0.85;;;0.38;;
56181;SDS011;51963;46.052;14.544;2024-03-25T12:04:11;0.50;;;0.38;;
56181;SDS011;51963;46.052;14.544;2024-03-25T12:06:38;1.05;;;0.47;;
56181;SDS011;51963;46.052;14.544;2024-03-25T12:09:03;0.60;;;0.32;;
56181;SDS011;51963;46.052;14.544;2024-03-25T12:11:47;0.63;;;0.30;;
56181;SDS011;51963;46.052;14.544;2024-03-25T12:14:14;1.13;;;0.40;;
56181;SDS011;51963;46.052;14.544;2024-03-25T12:16:43;0.70;;;0.30;;
56181;SDS011;51963;46.052;14.544;2024-03-25T12:19:08;0.30;;;0.30;;
56181;SDS011;51963;46.052;14.544;2024-03-25T12:21:34;0.40;;;0.28;;
56181;SDS011;51963;46.052;14.544;2024-03-25T12:23:59;0.38;;;0.20;;
56181;SDS011;51963;46.052;14.544;2024-03-25T12:26:25;0.32;;;0.30;;
56181;SDS011;51963;46.052;14.544;2024-03-25T12:28:51;0.47;;;0.10;;
56181;SDS011;51963;46.052;14.544;2024-03-25T12:31:23;0.20;;;0.20;;
56181;SDS011;51963;46.052;14.544;2024-03-25T12:33:48;0.98;;;0.77;;
56181;SDS011;51963;46.052;14.544;2024-03-25T12:36:14;0.47;;;0.40;;
56181;SDS011;51963;46.052;14.544;2024-03-25T12:38:40;0.98;;;0.30;;
56181;SDS011;51963;46.052;14.544;2024-03-25T12:41:06;1.10;;;0.30;;
56181;SDS011;51963;46.052;14.544;2024-03-25T12:43:34;0.47;;;0.30;;
56181;SDS011;51963;46.052;14.544;2024-03-25T12:46:15;2.30;;;0.40;;
56181;SDS011;51963;46.052;14.544;2024-03-25T12:48:41;3.63;;;0.30;;
56181;SDS011;51963;46.052;14.544;2024-03-25T12:51:12;0.32;;;0.20;;
56181;SDS011;51963;46.052;14.544;2024-03-25T12:53:39;1.33;;;0.20;;
56181;SDS011;51963;46.052;14.544;2024-03-25T12:56:05;0.20;;;0.15;;
56181;SDS011;51963;46.052;14.544;2024-03-25T12:58:31;0.20;;;0.20;;
56181;SDS011;51963;46.052;14.544;2024-03-25T13:00:56;0.40;;;0.20;;
56181;SDS011;51963;46.052;14.544;2024-03-25T13:03:25;0.13;;;0.10;;
56181;SDS011;51963;46.052;14.544;2024-03-25T13:05:51;1.45;;;0.30;;
56181;SDS011;51963;46.052;14.544;2024-03-25T13:08:16;1.10;;;1.00;;
56181;SDS011;51963;46.052;14.544;2024-03-25T13:10:42;0.98;;;0.20;;
56181;SDS011;51963;46.052;14.544;2024-03-25T13:13:08;2.28;;;0.30;;
56181;SDS011;51963;46.052;14.544;2024-03-25T13:15:34;0.20;;;0.20;;
56181;SDS011;51963;46.052;14.544;2024-03-25T13:18:00;0.43;;;0.20;;
56181;SDS011;51963;46.052;14.544;2024-03-25T13:20:26;36.95;;;2.65;;
56181;SDS011;51963;46.052;14.544;2024-03-25T13:22:54;2.05;;;0.30;;
56181;SDS011;51963;46.052;14.544;2024-03-25T13:25:23;1.23;;;0.22;;
56181;SDS011;51963;46.052;14.544;2024-03-25T13:27:52;0.13;;;0.13;;
56181;SDS011;51963;46.052;14.544;2024-03-25T13:30:18;0.35;;;0.35;;
56181;SDS011;51963;46.052;14.544;2024-03-25T13:32:44;0.20;;;0.20;;
56181;SDS011;51963;46.052;14.544;2024-03-25T13:35:10;0.10;;;0.10;;
56181;SDS011;51963;46.052;14.544;2024-03-25T13:37:40;0.20;;;0.20;;
56181;SDS011;51963;46.052;14.544;2024-03-25T13:40:06;0.32;;;0.20;;
56181;SDS011;51963;46.052;14.544;2024-03-25T13:42:32;0.55;;;0.30;;
56181;SDS011;51963;46.052;14.544;2024-03-25T13:44:58;0.60;;;0.30;;
56181;SDS011;51963;46.052;14.544;2024-03-25T13:47:23;0.68;;;0.20;;
56181;SDS011;51963;46.052;14.544;2024-03-25T13:49:49;0.30;;;0.20;;
56181;SDS011;51963;46.052;14.544;2024-03-25T13:52:14;3.20;;;0.82;;
56181;SDS011;51963;46.052;14.544;2024-03-25T13:54:40;0.20;;;0.20;;
56181;SDS011;51963;46.052;14.544;2024-03-25T13:57:06;0.20;;;0.20;;
56181;SDS011;51963;46.052;14.544;2024-03-25T13:59:33;0.20;;;0.20;;
56181;SDS011;51963;46.052;14.544;2024-03-25T14:01:59;0.50;;;0.20;;
56181;SDS011;51963;46.052;14.544;2024-03-25T14:04:25;0.20;;;0.20;;
56181;SDS011;51963;46.052;14.544;2024-03-25T14:06:51;0.35;;;0.20;;
56181;SDS011;51963;46.052;14.544;2024-03-25T14:09:22;0.93;;;0.20;;
56181;SDS011;51963;46.052;14.544;2024-03-25T14:11:49;0.22;;;0.20;;
56181;SDS011;51963;46.052;14.544;2024-03-25T14:14:15;1.30;;;0.30;;
56181;SDS011;51963;46.052;14.544;2024-03-25T14:16:41;0.20;;;0.20;;
56181;SDS011;51963;46.052;14.544;2024-03-25T14:19:06;0.17;;;0.17;;
56181;SDS011;51963;46.052;14.544;2024-03-25T14:21:32;1.40;;;0.40;;
56181;SDS011;51963;46.052;14.544;2024-03-25T14:23:57;0.55;;;0.30;;
56181;SDS011;51963;46.052;14.544;2024-03-25T14:26:23;0.50;;;0.30;;
56181;SDS011;51963;46.052;14.544;2024-03-25T14:28:52;0.93;;;0.30;;
56181;SDS011;51963;46.052;14.544;2024-03-25T14:31:17;0.38;;;0.20;;
56181;SDS011;51963;46.052;14.544;2024-03-25T14:33:43;1.88;;;0.20;;
56181;SDS011;51963;46.052;14.544;2024-03-25T14:36:11;1.55;;;0.30;;
56181;SDS011;51963;46.052;14.544;2024-03-25T14:38:37;1.23;;;0.20;;
56181;SDS011;51963;46.052;14.544;2024-03-25T14:41:04;0.82;;;0.13;;